Time;durP1;ratioP1;P1;durP2;ratioP2;P2;SDS_P1;SDS_P2;PMS_P1;PMS_P2;Temp;Humidity;BMP_temperature;BMP_pressure;BME280_temperature;BME280_humidity;BME280_pressure;Samples;Min_cycle;Max_cycle;Signal;HPM_P1;HPM_P2
2021/01/23 00:00:47;;;;;;;23.00;12.48;;;;;;;0.34;94.23;99734.69;5061519;28;20032;-75
2021/01/23 00:03:12;;;;;;;25.93;13.83;;;;;;;0.30;94.02;99728.97;5071518;28;20409;-74
2021/01/23 00:05:38;;;;;;;29.30;12.23;;;;;;;0.30;94.04;99741.44;5086611;28;20020;-75
2021/01/23 00:08:03;;;;;;;19.13;12.07;;;;;;;0.29;93.28;99735.28;5088286;28;20021;-74
2021/01/23 00:10:30;;;;;;;22.77;12.13;;;;;;;0.34;93.86;99732.03;5093984;28;20024;-74
2021/01/23 00:12:55;;;;;;;;;;;;;;;0.29;94.30;99735.28;5093714;28;20403;-75
2021/01/23 00:15:20;;;;;;;22.92;12.50;;;;;;;0.36;93.27;99725.53;5081719;28;19918;-75
2021/01/23 00:17:46;;;;;;;21.83;12.10;;;;;;;0.34;94.23;99734.69;5083445;28;20240;-74
2021/01/23 00:20:11;;;;;;;19.47;12.57;;;;;;;0.37;93.57;99721.84;5081972;28;20051;-75
2021/01/23 00:22:37;;;;;;;23.65;13.35;;;;;;;0.35;93.74;99720.41;5080858;28;20036;-75
2021/01/23 00:25:03;;;;;;;25.30;13.47;;;;;;;0.31;94.03;99711.19;5079226;28;20060;-75
2021/01/23 00:27:28;;;;;;;25.63;13.30;;;;;;;0.36;93.81;99711.41;5076975;28;20041;-75
2021/01/23 00:29:53;;;;;;;26.13;13.07;;;;;;;0.34;94.07;99695.66;5092062;28;20032;-75
2021/01/23 00:32:19;;;;;;;22.83;13.17;;;;;;;0.31;94.46;99698.69;5068581;28;20055;-75
2021/01/23 00:34:44;;;;;;;24.47;13.90;;;;;;;0.33;94.29;99711.78;5078339;28;20439;-75
2021/01/23 00:37:10;;;;;;;26.23;14.60;;;;;;;0.31;94.82;99711.19;5083365;28;20073;-75
2021/01/23 00:39:35;;;;;;;27.13;13.73;;;;;;;0.25;95.06;99705.59;5088023;28;20286;-75
2021/01/23 00:42:00;;;;;;;28.93;14.90;;;;;;;0.28;94.82;99708.88;5057311;28;20039;-75
2021/01/23 00:44:26;;;;;;;21.17;14.57;;;;;;;0.27;94.66;99702.75;5080513;28;20076;-75
2021/01/23 00:46:55;;;;;;;24.37;15.30;;;;;;;0.31;94.66;99703.19;5086900;28;20040;-75
2021/01/23 00:49:22;;;;;;;25.25;14.18;;;;;;;0.30;94.79;99704.22;5089885;28;20023;-74
2021/01/23 00:51:47;;;;;;;23.33;16.00;;;;;;;0.31;95.52;99689.91;5078785;28;20025;-75
2021/01/23 00:54:13;;;;;;;22.83;15.67;;;;;;;0.30;95.58;99693.59;5085212;28;20070;-75
2021/01/23 00:56:38;;;;;;;24.43;15.27;;;;;;;0.30;95.71;99693.59;5084525;28;20027;-75
2021/01/23 00:59:03;;;;;;;32.60;16.90;;;;;;;0.31;95.64;99695.22;5081790;28;20026;-74
2021/01/23 01:01:32;;;;;;;25.23;16.27;;;;;;;0.35;95.84;99693.81;5084268;28;20033;-75
2021/01/23 01:03:57;;;;;;;26.08;16.05;;;;;;;0.35;96.01;99685.84;5089990;28;20021;-75
2021/01/23 01:06:23;;;;;;;27.93;16.90;;;;;;;0.33;95.05;99691.34;5087185;28;20042;-75
2021/01/23 01:08:48;;;;;;;25.10;17.10;;;;;;;0.35;95.67;99688.50;5083775;28;20036;-75
2021/01/23 01:11:13;;;;;;;29.03;18.17;;;;;;;0.34;95.54;99689.50;5089700;28;20068;-75
2021/01/23 01:13:42;;;;;;;29.63;17.13;;;;;;;0.37;95.85;99697.09;5073349;28;20025;-75
2021/01/23 01:16:10;;;;;;;31.63;18.23;;;;;;;0.42;96.02;99698.16;5078271;28;20023;-75
2021/01/23 01:18:38;;;;;;;31.75;18.83;;;;;;;0.39;95.85;99697.72;5082534;28;20075;-75
2021/01/23 01:21:04;;;;;;;24.30;17.20;;;;;;;0.43;95.73;99694.47;5075824;28;20073;-75
2021/01/23 01:23:29;;;;;;;29.10;18.13;;;;;;;0.46;96.00;99693.28;5078874;28;20033;-75
2021/01/23 01:25:57;;;;;;;26.83;17.67;;;;;;;0.51;95.25;99704.16;5080150;28;20052;-75
2021/01/23 01:28:23;;;;;;;27.40;17.17;;;;;;;0.50;95.73;99700.69;5086910;28;20183;-75
2021/01/23 01:30:48;;;;;;;30.60;18.10;;;;;;;0.50;95.41;99705.19;5074840;28;20118;-75
2021/01/23 01:33:13;;;;;;;27.80;17.70;;;;;;;0.49;95.42;99699.06;5072561;28;20028;-75
2021/01/23 01:35:39;;;;;;;30.43;17.43;;;;;;;0.50;95.44;99713.16;5070766;28;20025;-75
2021/01/23 01:38:04;;;;;;;29.40;18.20;;;;;;;0.50;95.79;99705.19;5074689;28;20035;-74
2021/01/23 01:40:29;;;;;;;31.97;18.83;;;;;;;0.49;95.50;99699.06;5072571;28;20055;-75
2021/01/23 01:42:58;;;;;;;28.57;18.57;;;;;;;0.51;95.87;99701.50;5075523;28;20020;-75
2021/01/23 01:45:23;;;;;;;25.92;18.02;;;;;;;0.59;95.11;99698.72;5073027;28;20028;-75
2021/01/23 01:47:49;;;;;;;27.93;18.27;;;;;;;0.59;94.75;99682.75;5079268;28;20024;-75
2021/01/23 01:50:17;;;;;;;27.63;17.57;;;;;;;0.59;95.13;99696.06;5079443;28;20442;-75
2021/01/23 01:52:43;;;;;;;29.15;17.90;;;;;;;0.61;94.97;99691.34;5099959;28;20277;-75
2021/01/23 01:55:12;;;;;;;29.90;17.20;;;;;;;0.62;94.96;99692.97;5078936;28;20059;-75
2021/01/23 01:57:41;;;;;;;26.55;17.65;;;;;;;0.67;94.43;99692.41;5090845;28;20024;-75
2021/01/23 02:00:07;;;;;;;27.10;17.52;;;;;;;0.68;94.82;99689.56;5084587;28;20299;-75
2021/01/23 02:02:38;;;;;;;;;;;;;;;0.65;94.59;99686.47;5079352;28;20036;-75
2021/01/23 02:05:18;;;;;;;27.52;17.80;;;;;;;0.73;94.65;99683.63;5074883;28;19975;-75
2021/01/23 02:07:54;;;;;;;29.30;17.52;;;;;;;0.73;94.60;99687.13;5079862;28;20317;-75
2021/01/23 02:10:32;;;;;;;27.40;17.27;;;;;;;0.76;94.81;99675.28;5077404;28;20032;-75
2021/01/23 02:13:14;;;;;;;23.02;15.43;;;;;;;0.77;94.37;99680.38;5079179;28;20016;-75
2021/01/23 02:15:47;;;;;;;28.08;16.80;;;;;;;0.77;94.64;99680.38;5074103;28;20024;-75
2021/01/23 02:18:15;;;;;;;22.08;15.15;;;;;;;0.81;94.29;99675.50;5075019;28;20091;-74
2021/01/23 02:21:10;;;;;;;24.60;16.75;;;;;;;0.86;94.78;99662.44;5073813;28;20414;-74
2021/01/23 02:23:45;;;;;;;25.05;15.73;;;;;;;0.91;94.36;99665.31;5071459;28;20110;-75
2021/01/23 02:26:46;;;;;;;23.88;15.07;;;;;;;0.97;93.96;99669.03;5077025;28;20314;-75
2021/01/23 02:29:20;;;;;;;23.88;14.85;;;;;;;1.01;93.74;99664.97;5074162;28;20094;-75
2021/01/23 02:31:54;;;;;;;23.55;14.65;;;;;;;1.02;93.42;99661.28;5073995;28;20048;-75
2021/01/23 02:34:23;;;;;;;20.42;13.65;;;;;;;1.04;93.59;99669.91;5076768;28;20404;-75
2021/01/23 02:36:50;;;;;;;23.02;12.73;;;;;;;1.07;93.92;99669.47;5063771;28;20033;-75
2021/01/23 02:39:16;;;;;;;20.05;13.50;;;;;;;1.15;93.88;99668.50;5075141;28;20421;-75
2021/01/23 02:41:43;;;;;;;22.48;14.30;;;;;;;1.16;94.16;99667.47;5062503;28;20039;-75
2021/01/23 02:44:11;;;;;;;24.15;12.82;;;;;;;1.27;92.59;99670.41;5076274;28;20036;-75
2021/01/23 02:46:37;;;;;;;23.63;12.77;;;;;;;1.29;92.48;99672.88;5073039;28;20044;-75
2021/01/23 02:49:05;;;;;;;24.10;14.27;;;;;;;1.28;92.86;99666.72;5076580;28;20077;-75
2021/01/23 02:51:38;;;;;;;21.20;13.00;;;;;;;1.28;93.18;99669.38;5070252;28;20114;-75
2021/01/23 02:54:19;;;;;;;23.70;13.57;;;;;;;1.26;93.22;99665.25;5075958;28;20430;-75
2021/01/23 02:56:47;;;;;;;19.50;13.07;;;;;;;1.29;92.67;99673.69;5071128;28;20329;-75
2021/01/23 02:59:16;;;;;;;20.77;13.05;;;;;;;1.31;93.02;99659.34;5076301;28;20139;-75
2021/01/23 03:01:43;;;;;;;23.33;12.65;;;;;;;1.35;92.86;99661.41;5072904;28;20055;-75
2021/01/23 03:04:10;;;;;;;22.48;12.13;;;;;;;1.39;92.84;99661.84;5075738;28;20040;-75
2021/01/23 03:06:39;;;;;;;17.33;11.50;;;;;;;1.40;93.41;99660.81;5076003;28;20492;-75
2021/01/23 03:09:22;;;;;;;20.42;11.85;;;;;;;1.44;92.93;99665.53;5078086;28;20070;-75
2021/01/23 03:11:47;;;;;;;20.23;12.73;;;;;;;1.49;92.64;99656.94;5070171;28;20032;-75
2021/01/23 03:14:13;;;;;;;18.42;12.10;;;;;;;1.51;92.63;99655.75;5078285;28;20424;-75
2021/01/23 03:16:45;;;;;;;20.45;12.73;;;;;;;1.52;92.70;99656.56;5076336;28;20038;-75
2021/01/23 03:19:10;;;;;;;17.33;11.65;;;;;;;1.54;92.48;99652.66;5064216;28;20032;-75
2021/01/23 03:21:36;;;;;;;21.33;12.17;;;;;;;1.59;92.24;99659.22;5075936;28;20032;-75
2021/01/23 03:24:01;;;;;;;21.87;12.20;;;;;;;1.61;92.41;99650.03;5070114;28;20044;-75
2021/01/23 03:26:26;;;;;;;21.23;12.63;;;;;;;1.64;93.07;99632.78;5076156;28;20115;-75
2021/01/23 03:28:52;;;;;;;16.77;12.00;;;;;;;1.73;92.20;99648.41;5070075;28;20028;-75
2021/01/23 03:31:17;;;;;;;20.17;13.13;;;;;;;1.78;92.89;99653.94;5074083;28;20031;-75
2021/01/23 03:33:42;;;;;;;20.97;11.83;;;;;;;1.83;92.73;99644.50;5070237;28;20029;-75
2021/01/23 03:36:08;;;;;;;18.30;11.13;;;;;;;1.87;92.21;99641.25;5070120;28;20421;-75
2021/01/23 03:38:36;;;;;;;15.18;11.68;;;;;;;1.90;91.75;99638.16;5077178;28;20063;-75
2021/01/23 03:41:02;;;;;;;20.05;11.82;;;;;;;1.92;91.81;99636.13;5074037;28;20075;-75
2021/01/23 03:43:27;;;;;;;18.17;11.18;;;;;;;1.95;91.82;99635.72;5073485;28;20398;-75
2021/01/23 03:45:52;;;;;;;19.07;11.70;;;;;;;1.96;91.98;99633.88;5074475;28;20436;-75
2021/01/23 03:48:18;;;;;;;18.33;12.07;;;;;;;1.95;91.42;99630.38;5077400;28;20020;-75
2021/01/23 03:50:43;;;;;;;17.13;11.63;;;;;;;1.92;92.22;99627.31;5077166;28;20104;-75
2021/01/23 03:53:14;;;;;;;22.10;11.97;;;;;;;1.89;91.96;99619.69;5070817;28;20041;-75
2021/01/23 03:55:40;;;;;;;15.98;11.50;;;;;;;1.87;92.01;99621.75;5074577;28;20448;-75
2021/01/23 03:58:05;;;;;;;16.30;12.83;;;;;;;1.86;91.91;99620.13;5075554;28;20032;-75
2021/01/23 04:00:30;;;;;;;18.03;11.67;;;;;;;1.80;92.01;99617.22;5077128;28;20020;-75
2021/01/23 04:02:59;;;;;;;21.10;12.77;;;;;;;1.75;92.52;99609.03;5069596;28;20037;-75
2021/01/23 04:05:24;;;;;;;19.27;11.73;;;;;;;1.75;93.27;99606.34;5075309;28;20032;-74
2021/01/23 04:07:52;;;;;;;18.50;12.67;;;;;;;1.71;93.25;99621.13;5074647;28;20497;-75
2021/01/23 04:10:17;;;;;;;20.52;12.35;;;;;;;1.68;93.22;99618.88;5077018;28;20066;-74
2021/01/23 04:12:43;;;;;;;22.47;12.80;;;;;;;1.66;93.42;99612.94;5069051;28;20477;-75
2021/01/23 04:15:12;;;;;;;20.67;13.83;;;;;;;1.63;93.17;99618.66;5075270;28;20448;-74
2021/01/23 04:17:37;;;;;;;19.50;13.20;;;;;;;1.60;93.11;99621.72;5073662;28;20019;-75
2021/01/23 04:20:04;;;;;;;22.27;13.53;;;;;;;1.56;93.76;99623.13;5076860;28;20406;-75
2021/01/23 04:22:29;;;;;;;23.85;14.25;;;;;;;1.55;93.62;99621.50;5067194;28;21452;-74
2021/01/23 04:24:54;;;;;;;22.00;14.10;;;;;;;1.46;93.81;99618.19;5076527;28;20044;-75
2021/01/23 04:27:20;;;;;;;19.97;13.90;;;;;;;1.44;94.61;99622.91;5071930;28;20021;-75
2021/01/23 04:29:46;;;;;;;20.73;14.33;;;;;;;1.43;94.01;99623.13;5076460;28;20028;-75
2021/01/23 04:32:12;;;;;;;23.85;13.70;;;;;;;1.30;94.58;99621.25;5068226;28;20066;-75
2021/01/23 04:34:37;;;;;;;23.33;14.90;;;;;;;1.26;95.29;99625.31;5074899;28;20016;-75
2021/01/23 04:37:02;;;;;;;25.70;15.70;;;;;;;1.18;95.17;99618.34;5068902;28;20124;-75
2021/01/23 04:39:28;;;;;;;25.30;16.03;;;;;;;1.13;95.27;99623.44;5068267;28;20025;-74
2021/01/23 04:41:53;;;;;;;26.33;16.30;;;;;;;1.10;96.36;99629.16;5071067;28;20031;-75
2021/01/23 04:44:18;;;;;;;23.67;16.30;;;;;;;1.04;96.22;99629.97;5066213;28;20111;-75
2021/01/23 04:46:44;;;;;;;23.37;16.80;;;;;;;1.00;96.08;99616.22;5073352;28;20117;-74
2021/01/23 04:49:09;;;;;;;28.97;17.63;;;;;;;0.97;97.26;99632.56;5075818;28;20052;-74
2021/01/23 04:51:35;;;;;;;29.50;17.93;;;;;;;1.00;96.87;99618.06;5075505;28;20178;-74
2021/01/23 04:54:00;;;;;;;24.13;17.20;;;;;;;1.10;96.40;99623.00;5061493;28;20048;-74
2021/01/23 04:56:27;;;;;;;25.63;17.97;;;;;;;1.15;96.78;99620.56;5075885;28;20403;-75
2021/01/23 04:58:52;;;;;;;23.88;17.98;;;;;;;1.19;96.11;99622.66;5063563;28;20025;-75
2021/01/23 05:01:18;;;;;;;29.53;17.60;;;;;;;1.18;96.25;99621.00;5074475;28;20452;-75
2021/01/23 05:04:00;;;;;;;23.97;16.57;;;;;;;1.13;96.40;99604.00;5073955;28;20375;-75
2021/01/23 05:06:27;;;;;;;24.65;15.98;;;;;;;1.10;96.32;99593.72;5076070;28;20067;-75
2021/01/23 05:08:53;;;;;;;26.40;17.52;;;;;;;1.04;96.58;99595.34;5065002;28;20047;-75
2021/01/23 05:11:18;;;;;;;27.08;17.63;;;;;;;1.04;97.03;99595.34;5075585;28;20025;-75
2021/01/23 05:14:04;;;;;;;25.85;17.75;;;;;;;1.01;97.03;99591.22;5074906;28;20025;-75
2021/01/23 05:16:29;;;;;;;32.92;17.77;;;;;;;1.02;97.62;99594.72;5075716;28;20353;-75
2021/01/23 05:19:01;;;;;;;29.83;17.87;;;;;;;1.00;96.90;99596.75;5065198;28;20016;-75
2021/01/23 05:21:31;;;;;;;27.02;17.65;;;;;;;1.09;97.53;99598.25;5075124;28;20027;-75
2021/01/23 05:24:12;;;;;;;25.25;17.92;;;;;;;1.16;97.18;99603.56;5074194;28;20437;-75
2021/01/23 05:26:38;;;;;;;32.95;19.25;;;;;;;1.24;97.07;99601.56;5075808;28;20028;-74
2021/01/23 05:29:13;;;;;;;28.35;17.58;;;;;;;1.29;96.76;99599.13;5072881;28;20035;-75
2021/01/23 05:31:42;;;;;;;25.38;17.25;;;;;;;1.31;96.66;99601.56;5074618;28;20491;-75
2021/01/23 05:34:28;;;;;;;25.33;16.95;;;;;;;1.31;96.35;99595.41;5072792;28;20385;-75
2021/01/23 05:36:54;;;;;;;26.42;17.42;;;;;;;1.33;96.26;99588.88;5071914;28;20149;-75
2021/01/23 05:39:20;;;;;;;30.10;17.95;;;;;;;1.35;96.25;99594.00;5067304;28;20290;-75
2021/01/23 05:42:05;;;;;;;29.90;17.88;;;;;;;1.32;96.55;99586.41;5071733;28;20413;-74
2021/01/23 05:44:31;;;;;;;30.58;18.23;;;;;;;1.29;96.43;99577.81;5075708;28;20033;-74
2021/01/23 05:46:56;;;;;;;29.23;18.03;;;;;;;1.25;96.25;99589.88;5072198;28;20063;-74
2021/01/23 05:49:24;;;;;;;29.80;19.60;;;;;;;1.27;96.64;99592.34;5074338;28;20052;-74
2021/01/23 05:51:50;;;;;;;28.48;17.95;;;;;;;1.24;96.65;99590.91;5070129;28;20705;-75
2021/01/23 05:54:16;;;;;;;30.42;18.42;;;;;;;1.26;96.94;99599.50;5075342;28;20024;-74
2021/01/23 05:56:41;;;;;;;26.23;18.23;;;;;;;1.26;97.32;99593.34;5072735;28;20056;-75
2021/01/23 05:59:06;;;;;;;31.67;18.90;;;;;;;1.25;97.12;99589.88;5073950;28;20033;-75
2021/01/23 06:01:34;;;;;;;29.40;19.03;;;;;;;1.21;96.78;99596.63;5072498;28;20025;-75
2021/01/23 06:04:00;;;;;;;27.02;18.00;;;;;;;1.15;96.65;99597.44;5073905;28;20053;-74
2021/01/23 06:06:43;;;;;;;32.47;19.40;;;;;;;1.08;96.94;99596.59;5075180;28;20034;-75
2021/01/23 06:09:08;;;;;;;31.83;19.48;;;;;;;1.14;97.90;99600.31;5072642;28;20053;-74
2021/01/23 06:11:33;;;;;;;33.07;19.03;;;;;;;1.20;97.64;99605.63;5075570;28;20063;-75
2021/01/23 06:13:58;;;;;;;31.70;19.37;;;;;;;1.29;97.87;99604.44;5061823;28;20028;-74
2021/01/23 06:16:33;;;;;;;32.90;20.33;;;;;;;1.41;97.02;99606.50;5073457;28;20047;-74
2021/01/23 06:19:04;;;;;;;28.48;19.95;;;;;;;1.49;96.79;99603.66;5072771;28;20406;-75
2021/01/23 06:21:42;;;;;;;31.40;18.73;;;;;;;1.52;96.39;99603.28;5075471;28;20085;-74
2021/01/23 06:24:07;;;;;;;24.67;18.35;;;;;;;1.58;96.10;99602.47;5086232;28;20097;-74
2021/01/23 06:26:53;;;;;;;27.05;18.25;;;;;;;1.64;95.48;99606.16;5082394;28;20024;-74
2021/01/23 06:29:36;;;;;;;28.23;18.05;;;;;;;1.68;95.56;99600.22;5061728;28;20112;-74
2021/01/23 06:32:19;;;;;;;28.95;18.05;;;;;;;1.76;95.13;99615.19;5084624;28;20341;-74
2021/01/23 06:34:46;;;;;;;24.88;16.92;;;;;;;1.85;94.64;99608.63;5076942;28;20111;-74
2021/01/23 06:37:20;;;;;;;;;;;;;;;1.87;94.78;99611.09;5075228;28;20024;-74
2021/01/23 06:40:07;;;;;;;26.55;17.27;;;;;;;1.91;94.17;99613.16;5073789;28;19919;-74
2021/01/23 06:42:40;;;;;;;;;;;;;;;1.91;94.05;99617.66;5075335;28;20406;-74
2021/01/23 06:45:23;;;;;;;25.65;15.57;;;;;;;1.85;94.41;99613.94;5072100;28;19924;-74
2021/01/23 06:47:56;;;;;;;23.58;16.10;;;;;;;1.82;95.19;99610.91;5066922;28;20152;-75
2021/01/23 06:50:34;;;;;;;25.92;16.40;;;;;;;1.85;94.83;99616.63;5071221;28;20021;-75
2021/01/23 06:53:01;;;;;;;26.70;16.00;;;;;;;1.88;94.04;99618.88;5073152;28;20029;-74
2021/01/23 06:55:42;;;;;;;27.08;17.23;;;;;;;1.84;93.91;99632.81;5070906;28;20434;-74
2021/01/23 06:58:15;;;;;;;29.02;16.52;;;;;;;1.77;94.29;99636.31;5078038;28;20035;-74
2021/01/23 07:00:41;;;;;;;27.35;17.25;;;;;;;1.79;94.80;99636.09;5076233;28;20051;-74
2021/01/23 07:03:12;;;;;;;24.17;16.27;;;;;;;1.77;94.51;99638.97;5066675;28;20110;-75
2021/01/23 07:05:59;;;;;;;26.23;16.25;;;;;;;1.83;94.21;99647.19;5067227;28;20099;-75
2021/01/23 07:08:25;;;;;;;22.83;16.42;;;;;;;1.85;94.59;99637.13;5067804;28;20020;-75
2021/01/23 07:11:06;;;;;;;29.70;16.97;;;;;;;1.86;94.51;99644.94;5078758;28;20024;-75
2021/01/23 07:13:32;;;;;;;29.02;17.38;;;;;;;1.91;94.06;99644.31;5078452;28;20052;-75
2021/01/23 07:15:57;;;;;;;25.92;17.20;;;;;;;1.89;93.60;99652.50;5080594;28;20105;-75
2021/01/23 07:18:22;;;;;;;27.97;17.37;;;;;;;1.88;93.65;99652.72;5075601;28;20021;-76
2021/01/23 07:20:48;;;;;;;25.97;16.47;;;;;;;1.92;93.76;99651.28;5079626;28;20024;-74
2021/01/23 07:23:14;;;;;;;46.83;17.43;;;;;;;2.03;93.24;99651.50;5075865;28;20426;-73
2021/01/23 07:25:39;;;;;;;28.73;16.95;;;;;;;2.04;93.27;99650.47;5072698;28;20029;-76
2021/01/23 07:28:05;;;;;;;26.77;15.53;;;;;;;2.10;93.16;99654.19;5072052;28;20040;-75
2021/01/23 07:30:30;;;;;;;24.77;15.40;;;;;;;2.10;92.48;99659.53;5075744;28;20035;-74
2021/01/23 07:32:56;;;;;;;24.70;14.57;;;;;;;2.11;93.10;99661.16;5066724;28;20303;-75
2021/01/23 07:35:21;;;;;;;22.98;14.50;;;;;;;2.12;93.10;99661.97;5077417;28;20032;-74
2021/01/23 07:37:51;;;;;;;23.57;15.33;;;;;;;2.14;92.57;99657.25;5072175;28;20096;-75
2021/01/23 07:40:21;;;;;;;24.45;15.35;;;;;;;2.16;92.84;99653.34;5067265;28;20036;-75
2021/01/23 07:42:48;;;;;;;21.85;13.65;;;;;;;2.19;92.76;99652.94;5065605;28;20083;-75
2021/01/23 07:45:15;;;;;;;25.48;15.15;;;;;;;2.20;92.54;99651.09;5073932;28;20032;-75
2021/01/23 07:47:40;;;;;;;;;;;;;;;2.20;92.18;99648.44;5073887;28;20021;-75
2021/01/23 07:50:07;;;;;;;18.27;13.15;;;;;;;2.20;92.33;99659.09;5074495;28;20340;-75
2021/01/23 07:52:33;;;;;;;18.20;13.90;;;;;;;2.22;91.96;99663.19;5075755;28;20023;-75
2021/01/23 07:54:59;;;;;;;25.25;14.30;;;;;;;2.21;92.43;99666.09;5074074;28;20092;-75
2021/01/23 07:57:24;;;;;;;17.10;13.45;;;;;;;2.21;92.36;99666.91;5073698;28;20025;-75
2021/01/23 07:59:50;;;;;;;21.60;14.17;;;;;;;2.22;91.78;99671.19;5067906;28;20058;-75
2021/01/23 08:02:16;;;;;;;22.67;14.38;;;;;;;2.21;92.02;99668.75;5069552;28;20029;-75
2021/01/23 08:04:48;;;;;;;26.77;13.60;;;;;;;2.18;92.10;99661.97;5070664;28;20041;-75
2021/01/23 08:07:21;;;;;;;21.33;14.00;;;;;;;2.21;92.66;99676.75;5076959;28;20016;-75
2021/01/23 08:10:02;;;;;;;22.08;14.57;;;;;;;2.21;91.93;99661.56;5074021;28;20028;-75
2021/01/23 08:12:27;;;;;;;19.77;13.82;;;;;;;2.22;92.50;99665.88;5064600;28;20033;-75
2021/01/23 08:14:54;;;;;;;22.93;13.60;;;;;;;2.21;92.36;99664.22;5057065;28;20020;-75
2021/01/23 08:17:19;;;;;;;;;;;;;;;2.22;92.49;99655.19;5073332;28;20039;-76
2021/01/23 08:19:50;;;;;;;24.25;13.48;;;;;;;2.25;93.02;99651.31;5061367;28;20604;-75
2021/01/23 08:22:15;;;;;;;21.08;13.98;;;;;;;2.18;92.64;99651.28;5070189;28;20032;-75
2021/01/23 08:24:40;;;;;;;20.67;13.83;;;;;;;2.13;92.29;99640.41;5070612;28;20056;-76
2021/01/23 08:27:19;;;;;;;22.73;14.13;;;;;;;2.12;92.17;99645.97;5076809;28;20045;-76
2021/01/23 08:29:51;;;;;;;22.40;14.98;;;;;;;2.06;93.13;99642.28;5076384;28;20098;-76
2021/01/23 08:32:17;;;;;;;23.73;14.02;;;;;;;2.05;93.13;99632.66;5065454;28;20036;-75
2021/01/23 08:34:44;;;;;;;23.00;14.32;;;;;;;2.00;93.06;99638.59;5064689;28;20017;-76
2021/01/23 08:37:10;;;;;;;27.50;13.38;;;;;;;2.06;92.74;99640.44;5076521;28;20024;-75
2021/01/23 08:39:42;;;;;;;;;;;;;;;2.04;92.79;99644.31;5075592;28;20123;-76
2021/01/23 08:42:08;;;;;;;21.13;12.90;;;;;;;2.08;92.70;99634.88;5064124;28;20213;-75
2021/01/23 08:44:33;;;;;;;21.15;12.85;;;;;;;2.11;92.36;99645.16;5064007;28;20028;-76
2021/01/23 08:46:59;;;;;;;19.53;12.03;;;;;;;2.16;91.84;99639.22;5073036;28;20025;-76
2021/01/23 08:49:24;;;;;;;22.02;13.35;;;;;;;2.17;91.81;99641.66;5076084;28;20054;-75
2021/01/23 08:51:51;;;;;;;19.17;12.67;;;;;;;2.20;92.38;99637.78;5073714;28;20027;-75
2021/01/23 08:54:16;;;;;;;23.88;13.07;;;;;;;2.21;91.76;99637.56;5072770;28;20155;-75
2021/01/23 08:56:41;;;;;;;18.57;12.17;;;;;;;2.27;91.84;99630.56;5076350;28;20461;-75
2021/01/23 08:59:07;;;;;;;19.77;12.07;;;;;;;2.30;91.75;99627.50;5075004;28;20016;-76
2021/01/23 09:01:32;;;;;;;17.47;11.17;;;;;;;2.36;91.06;99623.19;5065476;28;20326;-76
2021/01/23 09:03:57;;;;;;;19.43;11.37;;;;;;;2.35;91.53;99624.22;5064791;28;20318;-76
2021/01/23 09:06:22;;;;;;;22.13;10.67;;;;;;;2.43;90.71;99624.78;5076159;28;20055;-76
2021/01/23 09:08:48;;;;;;;17.97;11.27;;;;;;;2.48;90.42;99630.31;5075472;28;20021;-76
2021/01/23 09:11:13;;;;;;;17.90;11.07;;;;;;;2.53;90.39;99627.84;5058819;28;20100;-76
2021/01/23 09:13:38;;;;;;;21.70;9.83;;;;;;;2.61;90.11;99618.81;5064136;28;20020;-71
2021/01/23 09:16:04;;;;;;;19.97;10.17;;;;;;;2.68;89.37;99613.47;5069818;28;20021;-76
2021/01/23 09:18:30;;;;;;;21.60;10.30;;;;;;;2.72;89.78;99610.16;5065465;28;20024;-76
2021/01/23 09:20:55;;;;;;;14.20;9.40;;;;;;;2.73;89.10;99614.50;5073005;28;20283;-76
2021/01/23 09:23:20;;;;;;;18.80;9.50;;;;;;;2.81;88.80;99613.44;5073059;28;20123;-76
2021/01/23 09:25:46;;;;;;;18.83;9.13;;;;;;;2.86;87.99;99607.47;5067943;28;20118;-76
2021/01/23 09:28:11;;;;;;;15.57;9.10;;;;;;;2.95;87.59;99603.53;5056936;28;20029;-76
2021/01/23 09:30:37;;;;;;;13.97;8.40;;;;;;;2.96;87.14;99603.31;5069309;28;20035;-76
2021/01/23 09:33:02;;;;;;;20.93;9.73;;;;;;;3.04;87.15;99602.25;5062886;28;20024;-76
2021/01/23 09:35:27;;;;;;;16.13;8.13;;;;;;;3.04;87.05;99608.41;5065602;28;20108;-76
2021/01/23 09:37:53;;;;;;;17.37;8.00;;;;;;;3.13;85.88;99602.84;5072526;28;20306;-77
2021/01/23 09:40:18;;;;;;;15.20;8.17;;;;;;;3.18;86.14;99603.03;5075335;28;20024;-76
2021/01/23 09:42:43;;;;;;;13.50;7.40;;;;;;;3.19;86.18;99602.81;5073648;28;20078;-76
2021/01/23 09:45:09;;;;;;;17.20;8.67;;;;;;;3.24;85.78;99610.19;5074194;28;20020;-76
2021/01/23 09:47:35;;;;;;;16.83;8.82;;;;;;;3.27;86.25;99607.91;5068780;28;20025;-76
2021/01/23 09:50:02;;;;;;;15.67;8.47;;;;;;;3.28;85.68;99606.06;5073948;28;20037;-76
2021/01/23 09:52:28;;;;;;;12.50;7.85;;;;;;;3.30;85.92;99612.81;5075688;28;20043;-76
2021/01/23 09:54:53;;;;;;;18.90;8.80;;;;;;;3.31;86.09;99610.94;5070233;28;20025;-76
2021/01/23 09:57:18;;;;;;;17.83;8.20;;;;;;;3.35;86.04;99614.84;5072805;28;20410;-76
2021/01/23 09:59:43;;;;;;;16.67;7.73;;;;;;;3.39;85.80;99620.59;5074860;28;20040;-76
2021/01/23 10:02:09;;;;;;;19.70;7.83;;;;;;;3.43;85.12;99616.44;5070567;28;20048;-76
2021/01/23 10:04:34;;;;;;;19.00;8.87;;;;;;;3.44;85.30;99613.56;5069575;28;20112;-76
2021/01/23 10:06:59;;;;;;;14.27;7.40;;;;;;;3.50;84.78;99612.69;5076878;28;20083;-76
2021/01/23 10:09:26;;;;;;;16.53;7.97;;;;;;;3.49;85.48;99611.06;5074927;28;20032;-77
2021/01/23 10:11:51;;;;;;;15.60;7.28;;;;;;;3.56;84.97;99608.34;5078639;28;20414;-76
2021/01/23 10:14:17;;;;;;;14.40;7.43;;;;;;;3.57;84.01;99608.13;5068860;28;20016;-76
2021/01/23 10:16:42;;;;;;;16.92;7.32;;;;;;;3.59;84.03;99619.44;5077455;28;20039;-76
2021/01/23 10:19:08;;;;;;;17.00;7.07;;;;;;;3.63;84.47;99622.50;5066860;28;20024;-76
2021/01/23 10:21:33;;;;;;;14.60;7.03;;;;;;;3.63;83.96;99617.16;5079252;28;20035;-77
2021/01/23 10:23:59;;;;;;;14.32;7.50;;;;;;;3.68;83.27;99617.31;5067312;28;20045;-77
2021/01/23 10:26:26;;;;;;;14.10;6.97;;;;;;;3.65;83.28;99609.72;5075421;28;20028;-77
2021/01/23 10:28:51;;;;;;;13.77;7.10;;;;;;;3.68;83.89;99613.84;5077330;28;20362;-76
2021/01/23 10:31:16;;;;;;;13.87;6.90;;;;;;;3.72;83.38;99612.38;5078870;28;20063;-76
2021/01/23 10:33:42;;;;;;;11.73;5.93;;;;;;;3.73;83.00;99617.50;5078922;28;20021;-76
2021/01/23 10:36:07;;;;;;;10.20;6.40;;;;;;;3.71;83.30;99614.22;5078857;28;20299;-75
2021/01/23 10:38:32;;;;;;;15.40;6.43;;;;;;;3.71;83.17;99610.69;5076973;28;20491;-76
2021/01/23 10:40:58;;;;;;;13.77;6.17;;;;;;;3.74;83.03;99610.28;5078890;28;20032;-76
2021/01/23 10:43:23;;;;;;;16.03;6.80;;;;;;;3.73;82.32;99608.66;5078617;28;20047;-76
2021/01/23 10:45:48;;;;;;;14.03;6.87;;;;;;;3.72;83.05;99613.19;5079029;28;20411;-76
2021/01/23 10:48:14;;;;;;;11.70;6.70;;;;;;;3.71;82.66;99602.69;5078566;28;20031;-76
2021/01/23 10:50:39;;;;;;;13.90;6.53;;;;;;;3.64;82.62;99602.75;5076990;28;20082;-76
2021/01/23 10:53:04;;;;;;;14.53;6.87;;;;;;;3.60;83.08;99599.66;5078640;28;20306;-76
2021/01/23 10:55:30;;;;;;;16.77;6.53;;;;;;;3.56;82.99;99600.31;5078449;28;20080;-76
2021/01/23 10:57:55;;;;;;;12.20;6.47;;;;;;;3.47;83.33;99602.44;5071939;28;20406;-75
2021/01/23 11:00:21;;;;;;;12.07;6.13;;;;;;;3.44;83.88;99596.72;5074896;28;20318;-75
2021/01/23 11:02:46;;;;;;;14.27;6.90;;;;;;;3.38;83.82;99592.22;5084646;28;20025;-75
2021/01/23 11:05:12;;;;;;;13.33;6.70;;;;;;;3.34;84.13;99592.66;5078272;28;20024;-75
2021/01/23 11:07:37;;;;;;;14.60;7.33;;;;;;;3.27;84.83;99581.19;5078749;28;20059;-75
2021/01/23 11:10:05;;;;;;;14.00;7.30;;;;;;;3.24;85.24;99586.94;5086088;28;20305;-75
2021/01/23 11:12:30;;;;;;;14.88;6.50;;;;;;;3.20;84.81;99585.72;5076785;28;20119;-76
2021/01/23 11:14:55;;;;;;;15.40;6.97;;;;;;;3.18;85.22;99598.50;5069828;28;20096;-76
2021/01/23 11:17:21;;;;;;;14.90;7.30;;;;;;;3.14;85.59;99597.28;5074105;28;20043;-75
2021/01/23 11:19:46;;;;;;;13.93;6.97;;;;;;;3.11;86.33;99595.03;5078425;28;20425;-76
2021/01/23 11:22:11;;;;;;;12.53;7.07;;;;;;;3.10;86.15;99596.88;5077865;28;20060;-75
2021/01/23 11:24:37;;;;;;;14.87;6.93;;;;;;;3.14;85.51;99605.28;5074255;28;20338;-76
2021/01/23 11:27:03;;;;;;;15.53;6.70;;;;;;;3.15;85.88;99604.25;5070134;28;20052;-75
2021/01/23 11:29:28;;;;;;;16.70;7.63;;;;;;;3.18;85.67;99598.50;5077844;28;20024;-76
2021/01/23 11:31:53;;;;;;;15.13;7.10;;;;;;;3.21;85.89;99597.22;5076183;28;20385;-76